sensor_id;sensor_type;location;lat;lon;timestamp;P1;durP1;ratioP1;P2;durP2;ratioP2
18076;SDS011;9165;45.714;11.362;2022-10-22T00:00:41;9.20;;;6.10;;
18076;SDS011;9165;45.714;11.362;2022-10-22T00:03:07;10.67;;;6.30;;
18076;SDS011;9165;45.714;11.362;2022-10-22T00:05:35;13.43;;;6.27;;
18076;SDS011;9165;45.714;11.362;2022-10-22T00:08:01;7.10;;;6.10;;
18076;SDS011;9165;45.714;11.362;2022-10-22T00:10:28;8.50;;;5.77;;
18076;SDS011;9165;45.714;11.362;2022-10-22T00:12:55;10.53;;;5.77;;
18076;SDS011;9165;45.714;11.362;2022-10-22T00:15:23;10.97;;;6.70;;
18076;SDS011;9165;45.714;11.362;2022-10-22T00:17:49;11.13;;;6.03;;
18076;SDS011;9165;45.714;11.362;2022-10-22T00:20:16;10.90;;;6.40;;
18076;SDS011;9165;45.714;11.362;2022-10-22T00:22:42;7.90;;;6.40;;
18076;SDS011;9165;45.714;11.362;2022-10-22T00:25:09;6.70;;;5.67;;
18076;SDS011;9165;45.714;11.362;2022-10-22T00:27:35;12.60;;;5.97;;
18076;SDS011;9165;45.714;11.362;2022-10-22T00:30:02;9.03;;;6.07;;
18076;SDS011;9165;45.714;11.362;2022-10-22T00:32:30;10.60;;;6.37;;
18076;SDS011;9165;45.714;11.362;2022-10-22T00:34:57;9.77;;;5.70;;
18076;SDS011;9165;45.714;11.362;2022-10-22T00:37:24;6.97;;;6.23;;
18076;SDS011;9165;45.714;11.362;2022-10-22T00:39:50;6.50;;;5.73;;
18076;SDS011;9165;45.714;11.362;2022-10-22T00:42:18;8.93;;;6.40;;
18076;SDS011;9165;45.714;11.362;2022-10-22T00:45:03;8.60;;;6.73;;
18076;SDS011;9165;45.714;11.362;2022-10-22T00:47:32;13.23;;;6.13;;
18076;SDS011;9165;45.714;11.362;2022-10-22T00:50:00;8.73;;;6.30;;
18076;SDS011;9165;45.714;11.362;2022-10-22T00:52:27;9.53;;;6.40;;
18076;SDS011;9165;45.714;11.362;2022-10-22T00:54:54;9.17;;;6.40;;
18076;SDS011;9165;45.714;11.362;2022-10-22T00:57:21;8.07;;;6.00;;
18076;SDS011;9165;45.714;11.362;2022-10-22T00:59:48;8.80;;;6.50;;
18076;SDS011;9165;45.714;11.362;2022-10-22T01:02:15;8.37;;;6.20;;
18076;SDS011;9165;45.714;11.362;2022-10-22T01:04:43;7.53;;;6.03;;
18076;SDS011;9165;45.714;11.362;2022-10-22T01:07:11;10.43;;;6.70;;
18076;SDS011;9165;45.714;11.362;2022-10-22T01:09:40;13.07;;;6.53;;
18076;SDS011;9165;45.714;11.362;2022-10-22T01:12:09;11.87;;;7.03;;
18076;SDS011;9165;45.714;11.362;2022-10-22T01:14:39;8.53;;;6.60;;
18076;SDS011;9165;45.714;11.362;2022-10-22T01:17:12;9.10;;;6.40;;
18076;SDS011;9165;45.714;11.362;2022-10-22T01:22:25;10.57;;;6.60;;
18076;SDS011;9165;45.714;11.362;2022-10-22T01:24:57;15.00;;;6.13;;
18076;SDS011;9165;45.714;11.362;2022-10-22T01:27:28;10.43;;;6.70;;
18076;SDS011;9165;45.714;11.362;2022-10-22T01:29:58;8.77;;;5.97;;
18076;SDS011;9165;45.714;11.362;2022-10-22T01:32:26;8.27;;;6.23;;
18076;SDS011;9165;45.714;11.362;2022-10-22T01:34:55;11.20;;;5.60;;
18076;SDS011;9165;45.714;11.362;2022-10-22T01:37:24;17.07;;;6.70;;
18076;SDS011;9165;45.714;11.362;2022-10-22T01:39:54;17.00;;;7.20;;
18076;SDS011;9165;45.714;11.362;2022-10-22T01:42:21;10.60;;;6.70;;
18076;SDS011;9165;45.714;11.362;2022-10-22T01:44:48;16.47;;;7.17;;
18076;SDS011;9165;45.714;11.362;2022-10-22T01:47:18;11.90;;;7.40;;
18076;SDS011;9165;45.714;11.362;2022-10-22T01:49:51;10.63;;;6.93;;
18076;SDS011;9165;45.714;11.362;2022-10-22T01:52:23;13.63;;;7.07;;
18076;SDS011;9165;45.714;11.362;2022-10-22T01:54:55;13.30;;;7.47;;
18076;SDS011;9165;45.714;11.362;2022-10-22T01:57:26;10.60;;;7.10;;
18076;SDS011;9165;45.714;11.362;2022-10-22T01:59:57;10.73;;;7.20;;
18076;SDS011;9165;45.714;11.362;2022-10-22T02:02:30;14.13;;;7.30;;
18076;SDS011;9165;45.714;11.362;2022-10-22T02:05:00;8.83;;;7.13;;
18076;SDS011;9165;45.714;11.362;2022-10-22T02:07:29;14.03;;;7.10;;
18076;SDS011;9165;45.714;11.362;2022-10-22T02:09:58;13.57;;;8.53;;
18076;SDS011;9165;45.714;11.362;2022-10-22T02:12:25;12.13;;;8.07;;
18076;SDS011;9165;45.714;11.362;2022-10-22T02:14:53;11.80;;;7.80;;
18076;SDS011;9165;45.714;11.362;2022-10-22T02:17:21;9.20;;;7.63;;
18076;SDS011;9165;45.714;11.362;2022-10-22T02:19:51;12.27;;;7.60;;
18076;SDS011;9165;45.714;11.362;2022-10-22T02:22:19;10.67;;;7.83;;
18076;SDS011;9165;45.714;11.362;2022-10-22T02:24:45;10.57;;;7.60;;
18076;SDS011;9165;45.714;11.362;2022-10-22T02:27:15;10.50;;;7.50;;
18076;SDS011;9165;45.714;11.362;2022-10-22T02:29:45;9.83;;;7.20;;
18076;SDS011;9165;45.714;11.362;2022-10-22T02:32:15;8.97;;;7.50;;
18076;SDS011;9165;45.714;11.362;2022-10-22T02:34:41;13.23;;;7.00;;
18076;SDS011;9165;45.714;11.362;2022-10-22T02:37:10;14.90;;;7.90;;
18076;SDS011;9165;45.714;11.362;2022-10-22T02:39:37;11.70;;;8.67;;
18076;SDS011;9165;45.714;11.362;2022-10-22T02:42:04;10.97;;;8.10;;
18076;SDS011;9165;45.714;11.362;2022-10-22T02:44:31;15.17;;;8.30;;
18076;SDS011;9165;45.714;11.362;2022-10-22T02:46:58;10.53;;;7.90;;
18076;SDS011;9165;45.714;11.362;2022-10-22T02:49:24;11.20;;;8.10;;
18076;SDS011;9165;45.714;11.362;2022-10-22T02:51:51;9.50;;;7.70;;
18076;SDS011;9165;45.714;11.362;2022-10-22T02:54:19;10.23;;;7.80;;
18076;SDS011;9165;45.714;11.362;2022-10-22T02:56:46;9.90;;;8.07;;
18076;SDS011;9165;45.714;11.362;2022-10-22T02:59:12;12.63;;;8.27;;
18076;SDS011;9165;45.714;11.362;2022-10-22T03:01:39;13.53;;;8.50;;
18076;SDS011;9165;45.714;11.362;2022-10-22T03:04:05;13.77;;;7.90;;
18076;SDS011;9165;45.714;11.362;2022-10-22T03:06:32;12.47;;;7.63;;
18076;SDS011;9165;45.714;11.362;2022-10-22T03:08:59;11.63;;;8.40;;
18076;SDS011;9165;45.714;11.362;2022-10-22T03:11:26;12.90;;;8.03;;
18076;SDS011;9165;45.714;11.362;2022-10-22T03:13:53;11.07;;;7.97;;
18076;SDS011;9165;45.714;11.362;2022-10-22T03:16:20;11.63;;;8.27;;
18076;SDS011;9165;45.714;11.362;2022-10-22T03:18:46;12.57;;;8.80;;
18076;SDS011;9165;45.714;11.362;2022-10-22T03:21:16;11.77;;;8.27;;
18076;SDS011;9165;45.714;11.362;2022-10-22T03:23:44;11.43;;;8.17;;
18076;SDS011;9165;45.714;11.362;2022-10-22T03:26:11;12.03;;;8.67;;
18076;SDS011;9165;45.714;11.362;2022-10-22T03:28:40;10.83;;;8.63;;
18076;SDS011;9165;45.714;11.362;2022-10-22T03:31:07;13.40;;;9.27;;
18076;SDS011;9165;45.714;11.362;2022-10-22T03:33:34;15.33;;;8.93;;
18076;SDS011;9165;45.714;11.362;2022-10-22T03:36:01;12.17;;;8.67;;
18076;SDS011;9165;45.714;11.362;2022-10-22T03:38:27;10.77;;;8.50;;
18076;SDS011;9165;45.714;11.362;2022-10-22T03:40:54;14.27;;;8.63;;
18076;SDS011;9165;45.714;11.362;2022-10-22T03:43:21;12.23;;;8.23;;
18076;SDS011;9165;45.714;11.362;2022-10-22T03:45:49;12.53;;;9.00;;
18076;SDS011;9165;45.714;11.362;2022-10-22T03:48:15;13.53;;;8.40;;
18076;SDS011;9165;45.714;11.362;2022-10-22T03:50:42;13.27;;;8.70;;
18076;SDS011;9165;45.714;11.362;2022-10-22T03:53:09;18.70;;;9.73;;
18076;SDS011;9165;45.714;11.362;2022-10-22T03:55:35;15.67;;;10.23;;
18076;SDS011;9165;45.714;11.362;2022-10-22T03:58:03;20.03;;;10.00;;
18076;SDS011;9165;45.714;11.362;2022-10-22T04:00:29;20.23;;;10.70;;
18076;SDS011;9165;45.714;11.362;2022-10-22T04:02:57;22.83;;;10.57;;
18076;SDS011;9165;45.714;11.362;2022-10-22T04:05:24;16.73;;;10.27;;
18076;SDS011;9165;45.714;11.362;2022-10-22T04:07:51;15.43;;;10.57;;
18076;SDS011;9165;45.714;11.362;2022-10-22T04:10:17;13.10;;;9.80;;
18076;SDS011;9165;45.714;11.362;2022-10-22T04:12:45;17.37;;;9.70;;
18076;SDS011;9165;45.714;11.362;2022-10-22T04:15:12;10.50;;;8.73;;
18076;SDS011;9165;45.714;11.362;2022-10-22T04:17:38;13.33;;;8.83;;
18076;SDS011;9165;45.714;11.362;2022-10-22T04:20:07;11.20;;;8.73;;
18076;SDS011;9165;45.714;11.362;2022-10-22T04:22:34;11.63;;;9.33;;
18076;SDS011;9165;45.714;11.362;2022-10-22T04:25:01;12.63;;;9.67;;
18076;SDS011;9165;45.714;11.362;2022-10-22T04:27:28;13.77;;;9.60;;
18076;SDS011;9165;45.714;11.362;2022-10-22T04:29:55;12.27;;;9.50;;
18076;SDS011;9165;45.714;11.362;2022-10-22T04:32:22;15.07;;;10.40;;
18076;SDS011;9165;45.714;11.362;2022-10-22T04:34:48;17.00;;;10.47;;
18076;SDS011;9165;45.714;11.362;2022-10-22T04:37:16;18.27;;;11.37;;
18076;SDS011;9165;45.714;11.362;2022-10-22T04:39:42;18.33;;;11.67;;
18076;SDS011;9165;45.714;11.362;2022-10-22T04:42:09;17.43;;;11.90;;
18076;SDS011;9165;45.714;11.362;2022-10-22T04:44:36;15.43;;;10.10;;
18076;SDS011;9165;45.714;11.362;2022-10-22T04:47:03;17.70;;;11.00;;
18076;SDS011;9165;45.714;11.362;2022-10-22T04:49:29;15.67;;;10.87;;
18076;SDS011;9165;45.714;11.362;2022-10-22T04:51:56;14.27;;;10.30;;
18076;SDS011;9165;45.714;11.362;2022-10-22T04:54:24;24.33;;;11.60;;
18076;SDS011;9165;45.714;11.362;2022-10-22T04:56:51;15.90;;;10.53;;
18076;SDS011;9165;45.714;11.362;2022-10-22T04:59:17;19.80;;;10.80;;
18076;SDS011;9165;45.714;11.362;2022-10-22T05:01:44;16.67;;;10.73;;
18076;SDS011;9165;45.714;11.362;2022-10-22T05:04:11;15.03;;;10.47;;
18076;SDS011;9165;45.714;11.362;2022-10-22T05:06:38;13.57;;;10.00;;
18076;SDS011;9165;45.714;11.362;2022-10-22T05:09:05;14.10;;;10.60;;
18076;SDS011;9165;45.714;11.362;2022-10-22T05:11:34;13.93;;;10.67;;
18076;SDS011;9165;45.714;11.362;2022-10-22T05:14:02;18.23;;;11.10;;
18076;SDS011;9165;45.714;11.362;2022-10-22T05:16:29;17.23;;;10.97;;
18076;SDS011;9165;45.714;11.362;2022-10-22T05:18:56;18.10;;;11.30;;
18076;SDS011;9165;45.714;11.362;2022-10-22T05:21:23;14.37;;;11.17;;
18076;SDS011;9165;45.714;11.362;2022-10-22T05:23:49;13.90;;;10.57;;
18076;SDS011;9165;45.714;11.362;2022-10-22T05:26:17;17.30;;;11.03;;
18076;SDS011;9165;45.714;11.362;2022-10-22T05:28:45;16.30;;;10.27;;
18076;SDS011;9165;45.714;11.362;2022-10-22T05:31:12;15.10;;;10.47;;
18076;SDS011;9165;45.714;11.362;2022-10-22T05:33:39;16.27;;;11.20;;
18076;SDS011;9165;45.714;11.362;2022-10-22T05:36:06;17.80;;;11.77;;
18076;SDS011;9165;45.714;11.362;2022-10-22T05:38:34;14.27;;;10.60;;
18076;SDS011;9165;45.714;11.362;2022-10-22T05:41:01;16.43;;;12.13;;
18076;SDS011;9165;45.714;11.362;2022-10-22T05:43:28;19.03;;;11.60;;
18076;SDS011;9165;45.714;11.362;2022-10-22T05:45:59;17.77;;;11.73;;
18076;SDS011;9165;45.714;11.362;2022-10-22T05:48:26;16.17;;;11.43;;
18076;SDS011;9165;45.714;11.362;2022-10-22T05:50:52;18.23;;;12.27;;
18076;SDS011;9165;45.714;11.362;2022-10-22T05:53:19;17.03;;;11.70;;
18076;SDS011;9165;45.714;11.362;2022-10-22T05:55:46;15.27;;;11.13;;
18076;SDS011;9165;45.714;11.362;2022-10-22T05:58:12;17.47;;;11.30;;
18076;SDS011;9165;45.714;11.362;2022-10-22T06:00:39;17.60;;;12.30;;
18076;SDS011;9165;45.714;11.362;2022-10-22T06:03:08;17.43;;;11.77;;
18076;SDS011;9165;45.714;11.362;2022-10-22T06:05:34;17.97;;;12.13;;
18076;SDS011;9165;45.714;11.362;2022-10-22T06:08:01;13.67;;;11.07;;
18076;SDS011;9165;45.714;11.362;2022-10-22T06:10:28;18.87;;;11.70;;
18076;SDS011;9165;45.714;11.362;2022-10-22T06:12:55;19.37;;;12.73;;
18076;SDS011;9165;45.714;11.362;2022-10-22T06:15:21;20.97;;;12.80;;
18076;SDS011;9165;45.714;11.362;2022-10-22T06:17:48;16.00;;;12.87;;
18076;SDS011;9165;45.714;11.362;2022-10-22T06:20:16;19.87;;;13.10;;
18076;SDS011;9165;45.714;11.362;2022-10-22T06:22:42;16.37;;;12.27;;
18076;SDS011;9165;45.714;11.362;2022-10-22T06:25:09;18.10;;;11.67;;
18076;SDS011;9165;45.714;11.362;2022-10-22T06:27:36;17.87;;;11.60;;
18076;SDS011;9165;45.714;11.362;2022-10-22T06:30:03;15.33;;;12.33;;
18076;SDS011;9165;45.714;11.362;2022-10-22T06:32:30;16.10;;;11.03;;
18076;SDS011;9165;45.714;11.362;2022-10-22T06:34:56;15.93;;;11.10;;
18076;SDS011;9165;45.714;11.362;2022-10-22T06:37:24;16.17;;;10.77;;
18076;SDS011;9165;45.714;11.362;2022-10-22T06:39:51;13.87;;;10.53;;
18076;SDS011;9165;45.714;11.362;2022-10-22T06:42:18;16.53;;;11.23;;
18076;SDS011;9165;45.714;11.362;2022-10-22T06:44:44;17.80;;;10.67;;
18076;SDS011;9165;45.714;11.362;2022-10-22T06:47:11;14.90;;;10.53;;
18076;SDS011;9165;45.714;11.362;2022-10-22T06:49:37;14.23;;;9.87;;
18076;SDS011;9165;45.714;11.362;2022-10-22T06:52:04;15.73;;;11.43;;
18076;SDS011;9165;45.714;11.362;2022-10-22T06:54:32;16.13;;;11.67;;
18076;SDS011;9165;45.714;11.362;2022-10-22T06:56:58;16.50;;;12.20;;
18076;SDS011;9165;45.714;11.362;2022-10-22T06:59:25;15.87;;;11.57;;
18076;SDS011;9165;45.714;11.362;2022-10-22T07:01:51;15.40;;;11.70;;
18076;SDS011;9165;45.714;11.362;2022-10-22T07:04:18;16.03;;;10.93;;
18076;SDS011;9165;45.714;11.362;2022-10-22T07:06:44;16.47;;;12.10;;
18076;SDS011;9165;45.714;11.362;2022-10-22T07:09:11;16.87;;;12.30;;
18076;SDS011;9165;45.714;11.362;2022-10-22T07:11:40;18.37;;;12.57;;
18076;SDS011;9165;45.714;11.362;2022-10-22T07:14:07;17.03;;;12.40;;
18076;SDS011;9165;45.714;11.362;2022-10-22T07:16:34;14.23;;;10.93;;
18076;SDS011;9165;45.714;11.362;2022-10-22T07:19:00;15.40;;;11.63;;
18076;SDS011;9165;45.714;11.362;2022-10-22T07:21:27;15.63;;;11.97;;
18076;SDS011;9165;45.714;11.362;2022-10-22T07:23:54;16.40;;;12.20;;
18076;SDS011;9165;45.714;11.362;2022-10-22T07:26:21;17.27;;;12.17;;
18076;SDS011;9165;45.714;11.362;2022-10-22T07:28:50;16.20;;;12.23;;
18076;SDS011;9165;45.714;11.362;2022-10-22T07:31:17;18.57;;;12.40;;
18076;SDS011;9165;45.714;11.362;2022-10-22T07:33:44;18.97;;;11.70;;
18076;SDS011;9165;45.714;11.362;2022-10-22T07:36:12;15.63;;;12.17;;
18076;SDS011;9165;45.714;11.362;2022-10-22T07:38:47;14.93;;;12.00;;
18076;SDS011;9165;45.714;11.362;2022-10-22T07:41:15;18.73;;;12.10;;
18076;SDS011;9165;45.714;11.362;2022-10-22T07:43:42;16.17;;;12.07;;
18076;SDS011;9165;45.714;11.362;2022-10-22T07:46:10;17.80;;;12.00;;
18076;SDS011;9165;45.714;11.362;2022-10-22T07:48:37;19.50;;;12.23;;
18076;SDS011;9165;45.714;11.362;2022-10-22T07:51:04;22.47;;;14.37;;
18076;SDS011;9165;45.714;11.362;2022-10-22T07:53:31;19.47;;;13.53;;
18076;SDS011;9165;45.714;11.362;2022-10-22T07:55:57;19.03;;;13.40;;
18076;SDS011;9165;45.714;11.362;2022-10-22T07:58:24;18.90;;;13.23;;
18076;SDS011;9165;45.714;11.362;2022-10-22T08:00:53;17.47;;;13.10;;
18076;SDS011;9165;45.714;11.362;2022-10-22T08:03:22;18.23;;;12.63;;
18076;SDS011;9165;45.714;11.362;2022-10-22T08:05:51;22.13;;;13.53;;
18076;SDS011;9165;45.714;11.362;2022-10-22T08:08:18;27.50;;;14.27;;
18076;SDS011;9165;45.714;11.362;2022-10-22T08:10:44;20.30;;;13.50;;
18076;SDS011;9165;45.714;11.362;2022-10-22T08:13:14;19.07;;;13.23;;
18076;SDS011;9165;45.714;11.362;2022-10-22T08:15:41;22.87;;;13.07;;
18076;SDS011;9165;45.714;11.362;2022-10-22T08:18:08;19.37;;;13.60;;
18076;SDS011;9165;45.714;11.362;2022-10-22T08:20:36;17.87;;;12.93;;
18076;SDS011;9165;45.714;11.362;2022-10-22T08:23:05;24.60;;;13.67;;
18076;SDS011;9165;45.714;11.362;2022-10-22T08:25:34;16.20;;;12.90;;
18076;SDS011;9165;45.714;11.362;2022-10-22T08:28:03;18.40;;;12.70;;
18076;SDS011;9165;45.714;11.362;2022-10-22T08:30:30;21.47;;;13.70;;
18076;SDS011;9165;45.714;11.362;2022-10-22T08:32:58;19.97;;;14.50;;
18076;SDS011;9165;45.714;11.362;2022-10-22T08:35:40;23.13;;;15.03;;
18076;SDS011;9165;45.714;11.362;2022-10-22T08:38:09;20.63;;;13.40;;
18076;SDS011;9165;45.714;11.362;2022-10-22T08:40:39;18.40;;;12.83;;
18076;SDS011;9165;45.714;11.362;2022-10-22T08:43:15;18.50;;;13.00;;
18076;SDS011;9165;45.714;11.362;2022-10-22T08:45:46;20.30;;;13.80;;
18076;SDS011;9165;45.714;11.362;2022-10-22T08:48:22;17.63;;;13.23;;
18076;SDS011;9165;45.714;11.362;2022-10-22T08:50:55;18.77;;;12.90;;
18076;SDS011;9165;45.714;11.362;2022-10-22T08:53:24;17.70;;;12.63;;
18076;SDS011;9165;45.714;11.362;2022-10-22T08:55:54;18.13;;;13.17;;
18076;SDS011;9165;45.714;11.362;2022-10-22T08:58:23;20.30;;;16.40;;
18076;SDS011;9165;45.714;11.362;2022-10-22T09:00:51;16.77;;;13.43;;
18076;SDS011;9165;45.714;11.362;2022-10-22T09:03:29;33.80;;;16.40;;
18076;SDS011;9165;45.714;11.362;2022-10-22T09:06:00;21.53;;;13.57;;
18076;SDS011;9165;45.714;11.362;2022-10-22T09:08:29;18.93;;;14.67;;
18076;SDS011;9165;45.714;11.362;2022-10-22T09:10:56;18.33;;;14.23;;
18076;SDS011;9165;45.714;11.362;2022-10-22T09:13:24;18.80;;;14.90;;
18076;SDS011;9165;45.714;11.362;2022-10-22T09:15:52;20.23;;;13.90;;
18076;SDS011;9165;45.714;11.362;2022-10-22T09:18:26;19.23;;;14.33;;
18076;SDS011;9165;45.714;11.362;2022-10-22T09:20:57;25.67;;;14.93;;
18076;SDS011;9165;45.714;11.362;2022-10-22T09:23:34;21.67;;;13.63;;
18076;SDS011;9165;45.714;11.362;2022-10-22T09:26:03;21.17;;;14.67;;
18076;SDS011;9165;45.714;11.362;2022-10-22T09:28:30;25.93;;;15.03;;
18076;SDS011;9165;45.714;11.362;2022-10-22T09:30:56;18.47;;;14.90;;
18076;SDS011;9165;45.714;11.362;2022-10-22T09:33:24;16.93;;;14.40;;
18076;SDS011;9165;45.714;11.362;2022-10-22T09:35:52;21.20;;;15.77;;
18076;SDS011;9165;45.714;11.362;2022-10-22T09:38:19;22.27;;;14.63;;
18076;SDS011;9165;45.714;11.362;2022-10-22T09:40:48;16.50;;;11.00;;
18076;SDS011;9165;45.714;11.362;2022-10-22T09:43:16;18.83;;;12.27;;
18076;SDS011;9165;45.714;11.362;2022-10-22T09:45:42;20.33;;;13.20;;
18076;SDS011;9165;45.714;11.362;2022-10-22T09:48:11;18.27;;;12.10;;
18076;SDS011;9165;45.714;11.362;2022-10-22T09:50:40;17.87;;;10.77;;
18076;SDS011;9165;45.714;11.362;2022-10-22T09:53:11;22.03;;;12.57;;
18076;SDS011;9165;45.714;11.362;2022-10-22T09:55:38;17.30;;;10.97;;
18076;SDS011;9165;45.714;11.362;2022-10-22T09:58:08;14.53;;;10.50;;
18076;SDS011;9165;45.714;11.362;2022-10-22T10:00:37;13.60;;;10.50;;
18076;SDS011;9165;45.714;11.362;2022-10-22T10:03:03;14.47;;;9.77;;
18076;SDS011;9165;45.714;11.362;2022-10-22T10:05:31;14.47;;;10.17;;
18076;SDS011;9165;45.714;11.362;2022-10-22T10:07:58;14.60;;;10.93;;
18076;SDS011;9165;45.714;11.362;2022-10-22T10:13:36;14.33;;;11.77;;
18076;SDS011;9165;45.714;11.362;2022-10-22T10:16:07;23.87;;;18.90;;
18076;SDS011;9165;45.714;11.362;2022-10-22T10:18:38;21.73;;;13.23;;
18076;SDS011;9165;45.714;11.362;2022-10-22T10:21:09;15.03;;;11.80;;
18076;SDS011;9165;45.714;11.362;2022-10-22T10:23:40;15.87;;;11.33;;
18076;SDS011;9165;45.714;11.362;2022-10-22T10:26:13;15.37;;;11.30;;
18076;SDS011;9165;45.714;11.362;2022-10-22T10:28:47;20.40;;;12.17;;
18076;SDS011;9165;45.714;11.362;2022-10-22T10:31:19;15.57;;;11.07;;
18076;SDS011;9165;45.714;11.362;2022-10-22T10:33:50;20.67;;;11.20;;
18076;SDS011;9165;45.714;11.362;2022-10-22T10:36:22;15.60;;;12.43;;
18076;SDS011;9165;45.714;11.362;2022-10-22T10:38:54;20.60;;;12.17;;
18076;SDS011;9165;45.714;11.362;2022-10-22T10:41:24;16.13;;;11.27;;
18076;SDS011;9165;45.714;11.362;2022-10-22T10:43:58;16.13;;;12.10;;
18076;SDS011;9165;45.714;11.362;2022-10-22T10:46:29;19.20;;;11.90;;
18076;SDS011;9165;45.714;11.362;2022-10-22T10:48:58;19.57;;;12.40;;
18076;SDS011;9165;45.714;11.362;2022-10-22T10:51:32;18.93;;;12.70;;
18076;SDS011;9165;45.714;11.362;2022-10-22T10:54:07;17.53;;;13.10;;
18076;SDS011;9165;45.714;11.362;2022-10-22T10:56:40;21.73;;;15.37;;
18076;SDS011;9165;45.714;11.362;2022-10-22T10:59:13;19.43;;;13.47;;
18076;SDS011;9165;45.714;11.362;2022-10-22T11:01:41;17.57;;;13.87;;
18076;SDS011;9165;45.714;11.362;2022-10-22T11:06:54;21.87;;;14.57;;
18076;SDS011;9165;45.714;11.362;2022-10-22T11:09:23;23.23;;;14.00;;
18076;SDS011;9165;45.714;11.362;2022-10-22T11:11:52;20.77;;;13.23;;
18076;SDS011;9165;45.714;11.362;2022-10-22T11:14:23;17.37;;;13.10;;
18076;SDS011;9165;45.714;11.362;2022-10-22T11:16:52;19.17;;;12.57;;
18076;SDS011;9165;45.714;11.362;2022-10-22T11:19:22;21.90;;;12.90;;
18076;SDS011;9165;45.714;11.362;2022-10-22T11:21:52;13.80;;;10.10;;
18076;SDS011;9165;45.714;11.362;2022-10-22T11:24:22;12.40;;;9.67;;
18076;SDS011;9165;45.714;11.362;2022-10-22T11:26:50;11.07;;;8.20;;
18076;SDS011;9165;45.714;11.362;2022-10-22T11:29:23;12.77;;;8.80;;
18076;SDS011;9165;45.714;11.362;2022-10-22T11:31:51;10.33;;;7.67;;
18076;SDS011;9165;45.714;11.362;2022-10-22T11:34:20;9.00;;;6.57;;
18076;SDS011;9165;45.714;11.362;2022-10-22T11:36:47;6.23;;;4.37;;
18076;SDS011;9165;45.714;11.362;2022-10-22T11:42:01;6.10;;;4.20;;
18076;SDS011;9165;45.714;11.362;2022-10-22T11:44:28;5.57;;;4.50;;
18076;SDS011;9165;45.714;11.362;2022-10-22T11:46:58;3.43;;;2.17;;
18076;SDS011;9165;45.714;11.362;2022-10-22T11:49:41;2.17;;;1.63;;
18076;SDS011;9165;45.714;11.362;2022-10-22T11:52:21;3.20;;;1.80;;
18076;SDS011;9165;45.714;11.362;2022-10-22T11:54:48;2.40;;;1.50;;
18076;SDS011;9165;45.714;11.362;2022-10-22T11:57:17;1.57;;;1.47;;
18076;SDS011;9165;45.714;11.362;2022-10-22T11:59:46;4.73;;;1.50;;
18076;SDS011;9165;45.714;11.362;2022-10-22T12:02:29;3.60;;;1.90;;
18076;SDS011;9165;45.714;11.362;2022-10-22T12:07:47;2.97;;;1.50;;
18076;SDS011;9165;45.714;11.362;2022-10-22T12:10:17;2.93;;;1.67;;
18076;SDS011;9165;45.714;11.362;2022-10-22T12:12:44;3.77;;;1.90;;
18076;SDS011;9165;45.714;11.362;2022-10-22T12:15:20;2.80;;;1.90;;
18076;SDS011;9165;45.714;11.362;2022-10-22T12:17:49;3.23;;;1.77;;
18076;SDS011;9165;45.714;11.362;2022-10-22T12:20:16;3.53;;;2.07;;
18076;SDS011;9165;45.714;11.362;2022-10-22T12:22:42;2.60;;;1.70;;
18076;SDS011;9165;45.714;11.362;2022-10-22T12:25:15;4.90;;;2.10;;
18076;SDS011;9165;45.714;11.362;2022-10-22T12:27:42;4.93;;;3.40;;
18076;SDS011;9165;45.714;11.362;2022-10-22T12:30:15;8.23;;;3.50;;
18076;SDS011;9165;45.714;11.362;2022-10-22T12:32:42;3.80;;;2.30;;
18076;SDS011;9165;45.714;11.362;2022-10-22T12:35:15;3.10;;;2.47;;
18076;SDS011;9165;45.714;11.362;2022-10-22T12:37:42;4.47;;;2.33;;
18076;SDS011;9165;45.714;11.362;2022-10-22T12:40:15;3.40;;;2.17;;
18076;SDS011;9165;45.714;11.362;2022-10-22T12:42:45;3.00;;;2.27;;
18076;SDS011;9165;45.714;11.362;2022-10-22T12:45:12;3.33;;;2.20;;
18076;SDS011;9165;45.714;11.362;2022-10-22T12:47:38;2.87;;;1.63;;
18076;SDS011;9165;45.714;11.362;2022-10-22T12:50:05;2.57;;;1.80;;
18076;SDS011;9165;45.714;11.362;2022-10-22T12:52:33;3.53;;;2.20;;
18076;SDS011;9165;45.714;11.362;2022-10-22T12:55:00;4.13;;;1.83;;
18076;SDS011;9165;45.714;11.362;2022-10-22T12:57:32;3.53;;;2.00;;
18076;SDS011;9165;45.714;11.362;2022-10-22T12:59:58;1.93;;;1.73;;
18076;SDS011;9165;45.714;11.362;2022-10-22T13:02:26;5.63;;;1.80;;
18076;SDS011;9165;45.714;11.362;2022-10-22T13:05:08;3.10;;;1.90;;
18076;SDS011;9165;45.714;11.362;2022-10-22T13:07:39;2.77;;;1.80;;
18076;SDS011;9165;45.714;11.362;2022-10-22T13:10:12;1.87;;;1.60;;
18076;SDS011;9165;45.714;11.362;2022-10-22T13:12:43;2.47;;;1.93;;
18076;SDS011;9165;45.714;11.362;2022-10-22T13:15:19;3.57;;;2.47;;
18076;SDS011;9165;45.714;11.362;2022-10-22T13:17:46;6.83;;;3.00;;
18076;SDS011;9165;45.714;11.362;2022-10-22T13:20:18;4.53;;;2.90;;
18076;SDS011;9165;45.714;11.362;2022-10-22T13:22:53;3.30;;;2.30;;
18076;SDS011;9165;45.714;11.362;2022-10-22T13:25:21;7.37;;;2.57;;
18076;SDS011;9165;45.714;11.362;2022-10-22T13:27:49;3.10;;;2.37;;
18076;SDS011;9165;45.714;11.362;2022-10-22T13:30:18;3.23;;;2.43;;
18076;SDS011;9165;45.714;11.362;2022-10-22T13:32:48;3.80;;;2.50;;
18076;SDS011;9165;45.714;11.362;2022-10-22T13:35:16;3.10;;;2.03;;
18076;SDS011;9165;45.714;11.362;2022-10-22T13:37:43;4.57;;;1.70;;
18076;SDS011;9165;45.714;11.362;2022-10-22T13:40:13;4.23;;;1.77;;
18076;SDS011;9165;45.714;11.362;2022-10-22T13:42:40;3.97;;;1.80;;
18076;SDS011;9165;45.714;11.362;2022-10-22T13:45:07;5.53;;;2.23;;
18076;SDS011;9165;45.714;11.362;2022-10-22T13:47:35;5.27;;;2.40;;
18076;SDS011;9165;45.714;11.362;2022-10-22T13:50:02;3.47;;;1.57;;
18076;SDS011;9165;45.714;11.362;2022-10-22T13:52:33;5.17;;;1.90;;
18076;SDS011;9165;45.714;11.362;2022-10-22T13:55:01;5.17;;;1.83;;
18076;SDS011;9165;45.714;11.362;2022-10-22T13:57:29;2.23;;;1.43;;
18076;SDS011;9165;45.714;11.362;2022-10-22T13:59:55;2.57;;;1.10;;
18076;SDS011;9165;45.714;11.362;2022-10-22T14:02:22;6.73;;;1.93;;
18076;SDS011;9165;45.714;11.362;2022-10-22T14:04:49;3.50;;;2.10;;
18076;SDS011;9165;45.714;11.362;2022-10-22T14:07:15;2.43;;;1.60;;
18076;SDS011;9165;45.714;11.362;2022-10-22T14:09:42;3.13;;;1.40;;
18076;SDS011;9165;45.714;11.362;2022-10-22T14:12:10;3.07;;;1.67;;
18076;SDS011;9165;45.714;11.362;2022-10-22T14:14:38;2.67;;;1.40;;
18076;SDS011;9165;45.714;11.362;2022-10-22T14:17:04;2.17;;;1.73;;
18076;SDS011;9165;45.714;11.362;2022-10-22T14:19:31;2.10;;;1.90;;
18076;SDS011;9165;45.714;11.362;2022-10-22T14:21:58;2.93;;;2.40;;
18076;SDS011;9165;45.714;11.362;2022-10-22T14:24:24;4.13;;;2.37;;
18076;SDS011;9165;45.714;11.362;2022-10-22T14:26:51;5.27;;;2.30;;
18076;SDS011;9165;45.714;11.362;2022-10-22T14:29:18;3.93;;;3.00;;
18076;SDS011;9165;45.714;11.362;2022-10-22T14:31:46;2.67;;;2.03;;
18076;SDS011;9165;45.714;11.362;2022-10-22T14:34:13;3.80;;;2.97;;
18076;SDS011;9165;45.714;11.362;2022-10-22T14:36:40;4.37;;;2.70;;
18076;SDS011;9165;45.714;11.362;2022-10-22T14:39:08;3.40;;;2.57;;
18076;SDS011;9165;45.714;11.362;2022-10-22T14:41:35;4.77;;;2.97;;
18076;SDS011;9165;45.714;11.362;2022-10-22T14:44:01;5.50;;;3.60;;
18076;SDS011;9165;45.714;11.362;2022-10-22T14:46:28;54.07;;;30.97;;
18076;SDS011;9165;45.714;11.362;2022-10-22T14:48:56;10.60;;;7.33;;
18076;SDS011;9165;45.714;11.362;2022-10-22T14:51:23;5.27;;;4.77;;
18076;SDS011;9165;45.714;11.362;2022-10-22T14:53:49;4.13;;;2.87;;